Time;durP1;ratioP1;P1;durP2;ratioP2;P2;SDS_P1;SDS_P2;PMS_P1;PMS_P2;Temp;Humidity;BMP_temperature;BMP_pressure;BME280_temperature;BME280_humidity;BME280_pressure;Samples;Min_cycle;Max_cycle;Signal;HPM_P1;HPM_P2
2021/01/29 00:00:45;;;;;;;26.37;9.93;;;;;;;-144.99;95.00;52570.38;5032442;28;20644;-76
2021/01/29 00:03:14;;;;;;;17.63;10.47;;;;;;;-144.99;95.07;52594.84;5030561;28;20642;-75
2021/01/29 00:05:43;;;;;;;21.37;11.93;;;;;;;-144.99;95.35;52594.84;5031423;28;20658;-75
2021/01/29 00:08:10;;;;;;;19.87;10.37;;;;;;;-144.99;95.30;52572.44;5032416;28;20623;-76
2021/01/29 00:10:36;;;;;;;28.03;9.90;;;;;;;-144.99;95.35;52586.69;5031789;28;20653;-75
2021/01/29 00:13:04;;;;;;;20.30;10.80;;;;;;;-144.99;95.25;52582.63;5032045;28;20629;-76
2021/01/29 00:15:30;;;;;;;12.87;7.53;;;;;;;-144.99;95.20;52582.63;5031508;28;20624;-74
2021/01/29 00:17:56;;;;;;;10.57;6.90;;;;;;;-144.99;95.09;52580.59;5030803;28;20701;-75
2021/01/29 00:20:25;;;;;;;10.60;6.60;;;;;;;-144.99;95.09;52580.59;5029674;28;20655;-75
2021/01/29 00:22:51;;;;;;;17.63;7.50;;;;;;;-144.99;95.22;52574.47;5032339;28;20681;-76
2021/01/29 00:25:20;;;;;;;20.10;10.17;;;;;;;-144.99;95.51;52578.53;5031967;28;20635;-77
2021/01/29 00:27:46;;;;;;;12.43;7.63;;;;;;;-144.99;95.11;52582.63;5033016;28;20624;-80
2021/01/29 00:30:15;;;;;;;17.63;10.87;;;;;;;-144.99;95.16;52596.88;5030911;28;21241;-77
2021/01/29 00:32:41;;;;;;;19.43;9.00;;;;;;;-144.99;95.06;52588.75;5031804;28;20685;-77
2021/01/29 00:35:09;;;;;;;25.40;11.70;;;;;;;-144.99;95.34;52590.78;5030792;28;21185;-76
2021/01/29 00:37:35;;;;;;;29.60;14.33;;;;;;;-144.99;95.24;52574.47;5032417;28;20714;-78
2021/01/29 00:40:01;;;;;;;20.43;12.13;;;;;;;-144.99;95.30;52611.16;5029910;28;20637;-74
2021/01/29 00:42:27;;;;;;;22.43;11.87;;;;;;;-144.99;95.54;52596.88;5032506;28;20645;-77
2021/01/29 00:44:53;;;;;;;24.27;12.30;;;;;;;-144.99;95.28;52594.84;5032188;28;20628;-77
2021/01/29 00:47:20;;;;;;;14.30;9.10;;;;;;;-144.99;94.74;52613.19;5024348;28;20737;-77
2021/01/29 00:49:46;;;;;;;16.97;8.40;;;;;;;-144.99;94.99;52582.63;5026977;28;21183;-79
2021/01/29 00:52:12;;;;;;;29.43;11.97;;;;;;;-144.99;95.31;52603.00;5026331;28;20656;-79
2021/01/29 00:54:38;;;;;;;23.80;10.17;;;;;;;-144.99;95.20;52600.97;5030316;28;20664;-76
2021/01/29 00:57:05;;;;;;;22.63;13.00;;;;;;;-144.99;95.21;52582.63;5026387;28;20653;-76
2021/01/29 00:59:31;;;;;;;16.53;10.23;;;;;;;-144.99;95.39;52607.09;5022886;28;20650;-77
2021/01/29 01:01:57;;;;;;;27.07;16.03;;;;;;;-144.99;95.60;52590.78;5018388;28;20744;-77
2021/01/29 01:04:24;;;;;;;26.80;12.20;;;;;;;-144.99;95.83;52607.09;5025240;28;21182;-76
2021/01/29 01:06:50;;;;;;;29.43;12.70;;;;;;;-144.99;95.74;52619.31;5019689;28;20742;-75
2021/01/29 01:09:16;;;;;;;29.07;13.83;;;;;;;-144.99;95.98;52594.84;5016285;28;20625;-77
2021/01/29 01:11:42;;;;;;;31.90;14.87;;;;;;;-144.99;95.93;52578.53;5022842;28;20648;-78
2021/01/29 01:14:08;;;;;;;25.27;12.20;;;;;;;-144.99;95.73;52627.47;5027621;28;20620;-79
2021/01/29 01:16:34;;;;;;;27.33;12.37;;;;;;;-144.99;95.83;52580.59;5020130;28;21127;-80
2021/01/29 01:19:00;;;;;;;32.00;22.07;;;;;;;-144.99;95.64;52590.78;5022054;28;20620;-77
2021/01/29 01:21:27;;;;;;;27.13;15.17;;;;;;;-144.99;95.45;52603.00;5031132;28;20756;-77
2021/01/29 01:23:53;;;;;;;26.30;14.27;;;;;;;-144.99;95.29;52590.78;5030923;28;20632;-77
2021/01/29 01:26:19;;;;;;;33.17;15.33;;;;;;;-144.99;95.30;52560.19;5031115;28;20624;-76
2021/01/29 01:28:45;;;;;;;31.10;15.40;;;;;;;-144.99;95.25;52619.31;5030902;28;20952;-73
2021/01/29 01:31:11;;;;;;;51.47;22.00;;;;;;;-144.99;95.67;52603.00;5029865;28;20655;-76
2021/01/29 01:33:38;;;;;;;45.27;21.20;;;;;;;-144.99;95.89;52613.19;5029118;28;20620;-75
2021/01/29 01:36:05;;;;;;;43.67;19.07;;;;;;;-144.99;96.07;52615.25;5029342;28;20620;-75
2021/01/29 01:38:31;;;;;;;47.67;20.33;;;;;;;-144.99;96.29;52545.94;5030299;28;20659;-77
2021/01/29 01:40:58;;;;;;;46.10;20.33;;;;;;;-144.99;96.75;52582.63;5027595;28;20658;-76
2021/01/29 01:43:24;;;;;;;28.17;14.07;;;;;;;-144.99;96.70;52598.94;5029732;28;20617;-76
2021/01/29 01:46:07;;;;;;;26.87;14.27;;;;;;;-144.99;96.40;52558.16;5030001;28;21006;-75
2021/01/29 01:48:51;;;;;;;47.77;15.47;;;;;;;-144.99;96.87;52574.47;5019375;28;20621;-75
2021/01/29 01:51:27;;;;;;;19.53;9.57;;;;;;;-144.99;96.19;52578.53;5023541;28;20644;-76
2021/01/29 01:53:56;;;;;;;25.23;13.63;;;;;;;-144.99;96.23;52582.63;5020679;28;21232;-76
2021/01/29 01:56:32;;;;;;;32.40;14.53;;;;;;;-144.99;96.49;52566.31;5023911;28;20847;-75
2021/01/29 01:59:01;;;;;;;28.53;12.83;;;;;;;-144.99;96.39;52566.31;5022382;28;20625;-76
2021/01/29 02:01:28;;;;;;;27.90;9.57;;;;;;;-144.99;96.23;52590.78;5019292;28;20652;-74
2021/01/29 02:03:56;;;;;;;26.73;10.50;;;;;;;-144.99;96.20;52603.00;5021369;28;20628;-75
2021/01/29 02:06:24;;;;;;;13.73;8.77;;;;;;;-144.99;96.10;52590.78;5016571;28;21179;-75
2021/01/29 02:08:51;;;;;;;25.30;10.97;;;;;;;-144.99;96.28;52598.94;5017808;28;21267;-76
2021/01/29 02:11:21;;;;;;;29.53;13.63;;;;;;;-144.99;96.59;52590.78;5017944;28;20676;-76
2021/01/29 02:13:47;;;;;;;25.80;10.83;;;;;;;-144.99;96.52;52582.63;5021583;28;20617;-78
2021/01/29 02:16:18;;;;;;;30.43;12.37;;;;;;;-144.99;96.82;52600.97;5018261;28;20672;-76
2021/01/29 02:19:05;;;;;;;23.57;9.93;;;;;;;-144.99;96.37;52627.47;5020443;28;21148;-77
2021/01/29 02:21:51;;;;;;;21.70;11.90;;;;;;;-144.99;96.19;52603.00;5018936;28;20652;-79
2021/01/29 02:24:36;;;;;;;28.33;8.67;;;;;;;-144.99;96.45;52598.94;5026878;28;20681;-75
2021/01/29 02:27:41;;;;;;;18.93;9.53;;;;;;;-144.99;96.43;52592.81;5014311;28;20621;-77
2021/01/29 02:30:24;;;;;;;22.70;12.43;;;;;;;-144.99;96.03;52611.16;5017540;28;20682;-77
2021/01/29 02:33:42;;;;;;;10.87;4.53;;;;;;;-144.99;95.60;52619.31;5016122;28;20704;-78
2021/01/29 02:36:48;;;;;;;8.90;4.93;;;;;;;-144.99;95.42;52594.84;5017489;28;20621;-77
2021/01/29 02:40:02;;;;;;;7.90;4.17;;;;;;;-144.99;94.97;52574.47;5017429;28;20724;-77
2021/01/29 02:42:40;;;;;;;9.57;4.80;;;;;;;-144.99;95.04;52570.38;4952499;28;21081;-78
2021/01/29 02:45:19;;;;;;;12.67;5.27;;;;;;;-144.99;95.42;52570.38;5015798;28;20636;-78
2021/01/29 02:47:52;;;;;;;6.83;4.13;;;;;;;-144.99;95.14;52656.00;5020461;28;20625;-78
2021/01/29 02:50:27;;;;;;;10.77;6.90;;;;;;;-144.99;95.23;52605.03;5022132;28;20616;-78
2021/01/29 02:52:59;;;;;;;13.57;6.30;;;;;;;-144.99;95.28;52607.09;5029414;28;20612;-77
2021/01/29 02:55:36;;;;;;;7.83;3.97;;;;;;;-144.99;95.04;52594.84;5020816;28;20630;-76
2021/01/29 02:58:09;;;;;;;22.47;8.47;;;;;;;-144.99;95.27;52568.34;5023750;28;20653;-76
2021/01/29 03:00:39;;;;;;;17.77;7.17;;;;;;;-144.99;95.28;52554.09;5028290;28;20664;-77
2021/01/29 03:03:10;;;;;;;19.30;7.27;;;;;;;-144.99;95.14;52582.63;5027692;28;20613;-75
2021/01/29 03:05:39;;;;;;;21.03;6.53;;;;;;;-144.99;94.94;52586.69;5027527;28;21002;-76
2021/01/29 03:08:12;;;;;;;12.80;4.90;;;;;;;-144.99;94.87;52578.53;5028379;28;20677;-74
2021/01/29 03:10:46;;;;;;;6.10;3.73;;;;;;;-144.99;94.27;52631.53;5028255;28;20652;-75
2021/01/29 03:13:20;;;;;;;18.13;5.60;;;;;;;-144.99;94.08;52562.25;5028400;28;20616;-74
2021/01/29 03:15:53;;;;;;;14.60;5.43;;;;;;;-144.99;94.27;52586.69;5028191;28;20624;-74
2021/01/29 03:18:24;;;;;;;7.83;4.43;;;;;;;-144.99;93.95;52576.50;5026713;28;21234;-74
2021/01/29 03:20:56;;;;;;;7.57;3.90;;;;;;;-144.99;93.65;52607.09;5028168;28;20652;-74
2021/01/29 03:23:30;;;;;;;5.03;2.93;;;;;;;-144.99;93.63;52603.00;5029005;28;21049;-75
2021/01/29 03:26:00;;;;;;;5.67;2.27;;;;;;;-144.99;93.45;52615.25;5031950;28;21186;-74
2021/01/29 03:28:32;;;;;;;5.40;2.70;;;;;;;-144.99;93.45;52621.34;5031252;28;21270;-75
2021/01/29 03:31:02;;;;;;;6.17;5.57;;;;;;;-144.99;93.64;52578.53;5032198;28;20983;-76
2021/01/29 03:33:31;;;;;;;5.87;3.63;;;;;;;-144.99;93.42;52635.63;5030903;28;20625;-77
2021/01/29 03:36:00;;;;;;;6.00;2.87;;;;;;;-144.99;93.23;52603.00;5031617;28;20624;-74
2021/01/29 03:38:32;;;;;;;11.03;4.53;;;;;;;-144.99;93.34;52613.19;5031839;28;21067;-77
2021/01/29 03:41:08;;;;;;;11.13;3.00;;;;;;;-144.99;93.29;52584.66;5029978;28;20707;-75
2021/01/29 03:43:43;;;;;;;4.73;2.60;;;;;;;-144.99;93.21;52594.84;5031965;28;20627;-76
2021/01/29 03:46:13;;;;;;;10.07;3.87;;;;;;;-144.99;93.20;52607.09;5032202;28;20621;-76
2021/01/29 03:48:51;;;;;;;7.73;3.57;;;;;;;-144.99;93.13;52582.63;5019171;28;20620;-76
2021/01/29 03:51:26;;;;;;;4.83;2.57;;;;;;;-144.99;93.03;52598.94;5025909;28;20644;-76
2021/01/29 03:54:00;;;;;;;9.73;3.70;;;;;;;-144.99;93.18;52582.63;5023047;28;20670;-77
2021/01/29 03:56:40;;;;;;;6.17;3.33;;;;;;;-144.99;93.13;52625.44;5031194;28;20632;-77
2021/01/29 03:59:16;;;;;;;9.07;4.37;;;;;;;-144.99;93.30;52598.94;5024595;28;20620;-76
2021/01/29 04:01:51;;;;;;;12.90;6.23;;;;;;;-144.99;93.42;52594.84;5021389;28;21290;-75
2021/01/29 04:04:26;;;;;;;13.37;5.23;;;;;;;-144.99;93.17;52639.69;5021176;28;20624;-77
2021/01/29 04:07:01;;;;;;;15.53;6.20;;;;;;;-144.99;93.57;52615.25;5019733;28;20621;-76
2021/01/29 04:09:34;;;;;;;13.30;4.23;;;;;;;-144.99;93.09;52566.31;5012419;28;20613;-76
2021/01/29 04:12:04;;;;;;;13.23;6.47;;;;;;;-144.99;93.07;52590.78;5023123;28;21010;-76
2021/01/29 04:14:35;;;;;;;15.63;5.63;;;;;;;-144.99;92.65;52594.84;5018374;28;20647;-76
2021/01/29 04:17:10;;;;;;;14.77;5.53;;;;;;;-144.99;93.07;52550.00;5023945;28;20659;-77
2021/01/29 04:19:40;;;;;;;9.77;5.27;;;;;;;-144.99;92.93;52586.69;5017013;28;20613;-76
2021/01/29 04:22:13;;;;;;;39.20;14.07;;;;;;;-144.99;93.38;52629.50;5023729;28;20656;-77
2021/01/29 04:24:44;;;;;;;16.67;6.50;;;;;;;-144.99;93.29;52580.59;5027959;28;21231;-75
2021/01/29 04:27:14;;;;;;;27.30;9.63;;;;;;;-144.99;93.64;52596.88;5020486;28;20613;-76
2021/01/29 04:29:45;;;;;;;21.17;8.73;;;;;;;-144.99;93.28;52580.59;5019382;28;21189;-78
2021/01/29 04:32:15;;;;;;;41.37;15.30;;;;;;;-144.99;94.51;52582.63;5031553;28;21264;-78
2021/01/29 04:34:45;;;;;;;36.00;15.23;;;;;;;-144.99;94.29;52572.44;5029303;28;20629;-76
2021/01/29 04:37:15;;;;;;;39.97;13.10;;;;;;;-144.99;94.40;52611.16;5030173;28;20664;-77
2021/01/29 04:39:45;;;;;;;13.33;6.07;;;;;;;-144.99;93.69;52596.88;5030557;28;20635;-78
2021/01/29 04:42:24;;;;;;;22.07;6.67;;;;;;;-144.99;93.89;52635.63;5064998;22;20753;-74
2021/01/29 04:45:13;;;;;;;23.63;6.30;;;;;;;-144.99;93.52;52576.50;5040526;28;21314;-73
2021/01/29 04:47:46;;;;;;;13.93;4.10;;;;;;;-144.99;92.98;52586.69;5050183;28;20604;-74
2021/01/29 04:50:25;;;;;;;11.90;3.20;;;;;;;-144.99;93.01;52562.25;5046134;28;20603;-74
2021/01/29 04:53:22;;;;;;;17.97;6.60;;;;;;;-144.99;93.00;52598.94;5044003;28;20662;-74
2021/01/29 04:56:19;;;;;;;14.10;7.53;;;;;;;-144.99;93.33;52607.09;5046405;28;20626;-73
2021/01/29 04:59:04;;;;;;;23.60;8.00;;;;;;;-144.99;93.47;52566.31;5041261;28;20678;-72
2021/01/29 05:01:59;;;;;;;41.63;14.27;;;;;;;-144.99;94.67;52574.47;5041246;28;20833;-73
2021/01/29 05:05:02;;;;;;;33.03;13.20;;;;;;;-144.99;94.51;52603.00;5041418;28;20638;-72
2021/01/29 05:08:00;;;;;;;24.27;8.47;;;;;;;-144.99;93.94;52566.31;5030656;28;20631;-74
2021/01/29 05:11:10;;;;;;;9.20;5.60;;;;;;;-144.99;92.98;52603.00;5039191;28;21123;-73
2021/01/29 05:13:51;;;;;;;25.33;10.80;;;;;;;-144.99;93.35;52605.03;5037853;28;20605;-73
2021/01/29 05:16:48;;;;;;;25.80;11.03;;;;;;;-144.99;93.43;52570.38;5041389;28;20924;-73
2021/01/29 05:19:50;;;;;;;10.33;5.70;;;;;;;-144.99;92.73;52615.25;5034838;28;20689;-72
2021/01/29 05:22:27;;;;;;;10.83;3.77;;;;;;;-144.99;92.09;52584.66;5046111;28;20864;-73
2021/01/29 05:25:45;;;;;;;18.63;8.10;;;;;;;-144.99;92.80;52566.31;5039706;28;20631;-74
2021/01/29 05:28:34;;;;;;;14.57;6.30;;;;;;;-144.99;92.78;52574.47;5010310;28;20624;-74
2021/01/29 05:31:20;;;;;;;28.33;11.13;;;;;;;-144.99;93.07;52635.63;5041844;28;20665;-73
2021/01/29 05:34:02;;;;;;;18.83;8.33;;;;;;;-144.99;92.00;52603.00;5039041;28;21204;-75
2021/01/29 05:36:38;;;;;;;24.20;8.43;;;;;;;-144.99;92.14;52598.94;5044090;28;20610;-74
2021/01/29 05:39:18;;;;;;;11.47;5.37;;;;;;;-144.99;91.70;52586.69;5042904;28;20626;-74
2021/01/29 05:41:59;;;;;;;15.93;7.00;;;;;;;-144.99;91.40;52584.66;5042079;28;20686;-74
2021/01/29 05:45:03;;;;;;;15.73;6.07;;;;;;;-144.99;91.02;52590.78;5049722;28;20607;-74
2021/01/29 05:48:12;;;;;;;10.73;6.03;;;;;;;-144.99;91.02;52586.69;5049241;28;21068;-73
2021/01/29 05:51:12;;;;;;;14.13;5.73;;;;;;;-144.99;90.35;52586.69;5045100;28;20827;-75
2021/01/29 05:54:07;;;;;;;6.60;2.73;;;;;;;-144.99;89.68;52562.25;5052164;28;20974;-74
2021/01/29 05:56:50;;;;;;;18.30;7.17;;;;;;;-144.99;90.24;52594.84;5049932;28;21009;-75
2021/01/29 05:59:34;;;;;;;18.23;7.47;;;;;;;-144.99;90.36;52619.31;5046069;28;20667;-74
2021/01/29 06:02:15;;;;;;;34.77;12.00;;;;;;;-144.99;91.61;52582.63;5041593;28;20652;-74
2021/01/29 06:05:18;;;;;;;19.57;7.87;;;;;;;-144.99;90.49;52598.94;5037694;28;20719;-75
2021/01/29 06:08:28;;;;;;;17.67;7.20;;;;;;;-144.99;90.01;52627.47;5025395;28;20655;-75
2021/01/29 06:11:30;;;;;;;18.37;7.30;;;;;;;-144.99;89.70;52578.53;5038305;28;20624;-75
2021/01/29 06:14:36;;;;;;;8.63;3.37;;;;;;;-144.99;89.09;52594.84;5022280;28;20627;-76
2021/01/29 06:17:37;;;;;;;18.23;7.17;;;;;;;-144.99;89.39;52615.25;5040568;28;20639;-74
2021/01/29 06:20:27;;;;;;;15.20;5.67;;;;;;;-144.99;89.60;52582.63;5039820;28;20659;-74
2021/01/29 06:23:34;;;;;;;12.30;5.87;;;;;;;-144.99;89.35;52566.31;5029809;28;20751;-76
2021/01/29 06:26:30;;;;;;;16.43;4.70;;;;;;;-144.99;89.18;52562.25;5044324;28;20619;-74
2021/01/29 06:29:23;;;;;;;13.80;4.30;;;;;;;-144.99;88.58;52590.78;5040425;28;21037;-73
2021/01/29 06:32:29;;;;;;;16.77;6.60;;;;;;;-144.99;88.77;52619.31;5048020;28;20910;-74
2021/01/29 06:35:28;;;;;;;9.17;4.33;;;;;;;-144.99;88.44;52556.13;5035656;28;20631;-73
2021/01/29 06:38:16;;;;;;;42.10;16.03;;;;;;;-144.99;89.62;52598.94;5035752;28;20662;-73
2021/01/29 06:40:57;;;;;;;42.77;15.70;;;;;;;-144.99;90.33;52590.78;5033324;28;20617;-73
2021/01/29 06:43:55;;;;;;;31.47;12.03;;;;;;;-144.99;89.12;52603.00;5047531;28;21075;-74
2021/01/29 06:46:45;;;;;;;31.17;10.80;;;;;;;-144.99;89.30;52598.94;5044848;28;20620;-74
2021/01/29 06:49:36;;;;;;;31.60;16.17;;;;;;;-144.99;89.35;52554.09;5040899;28;21073;-76
2021/01/29 06:52:47;;;;;;;22.20;9.37;;;;;;;-144.99;88.41;52598.94;5043051;28;20697;-74
2021/01/29 06:55:34;;;;;;;13.30;7.07;;;;;;;-144.99;87.36;52554.09;5041107;28;20619;-74
2021/01/29 06:58:32;;;;;;;17.67;7.83;;;;;;;-144.99;86.93;52574.47;5033686;28;20727;-73
2021/01/29 07:01:40;;;;;;;29.83;10.37;;;;;;;-144.99;88.16;52566.31;5038103;28;20623;-74
2021/01/29 07:04:43;;;;;;;16.67;6.80;;;;;;;-144.99;86.83;52590.78;5041181;28;20612;-72
2021/01/29 07:07:19;;;;;;;4.97;3.97;;;;;;;-144.99;86.58;52590.78;5045294;28;20625;-73
2021/01/29 07:10:21;;;;;;;14.50;4.80;;;;;;;-144.99;86.70;52562.25;5036990;28;21104;-73
2021/01/29 07:13:02;;;;;;;6.83;3.60;;;;;;;-144.99;86.32;52627.47;5039470;28;20738;-72
2021/01/29 07:15:45;;;;;;;7.73;3.03;;;;;;;-144.99;86.58;52607.09;5047006;28;20624;-73
2021/01/29 07:18:45;;;;;;;11.47;6.27;;;;;;;-144.99;86.40;52574.47;5041696;28;20652;-73
2021/01/29 07:21:31;;;;;;;26.53;10.53;;;;;;;-144.99;87.04;52576.50;5041253;28;20639;-74
2021/01/29 07:24:14;;;;;;;21.77;12.60;;;;;;;-144.99;86.80;52627.47;5046606;28;21232;-73
2021/01/29 07:26:59;;;;;;;19.43;9.40;;;;;;;-144.99;86.51;52600.97;5049887;28;20633;-74
2021/01/29 07:29:39;;;;;;;16.33;7.47;;;;;;;-144.99;86.11;52594.84;5043424;28;21169;-74
2021/01/29 07:32:15;;;;;;;16.53;6.90;;;;;;;-144.99;86.23;52562.25;5048618;28;20731;-72
2021/01/29 07:34:49;;;;;;;15.70;7.90;;;;;;;-144.99;86.18;52598.94;5044592;28;20711;-74
2021/01/29 07:37:41;;;;;;;13.87;6.53;;;;;;;-144.99;84.98;52558.16;5048994;28;20662;-76
2021/01/29 07:40:27;;;;;;;14.63;8.60;;;;;;;-144.99;85.35;52570.38;5045125;28;20773;-74
2021/01/29 07:43:25;;;;;;;23.37;12.87;;;;;;;-144.99;85.95;52586.69;5044814;28;20655;-75
2021/01/29 07:46:19;;;;;;;15.70;7.00;;;;;;;-144.99;85.36;52615.25;5036955;28;20635;-76
2021/01/29 07:49:03;;;;;;;19.43;7.47;;;;;;;-144.99;85.11;52562.25;5050285;28;21176;-71
2021/01/29 07:51:36;;;;;;;28.00;11.13;;;;;;;-144.99;85.15;52600.97;5048655;28;20686;-74
2021/01/29 07:54:52;;;;;;;33.50;12.07;;;;;;;-144.99;85.86;52578.53;5045003;28;20758;-74
2021/01/29 07:57:28;;;;;;;39.30;15.90;;;;;;;-144.99;85.44;52574.47;5048595;28;20694;-75
2021/01/29 08:00:08;;;;;;;24.60;12.07;;;;;;;-144.99;85.30;52578.53;5040266;28;21198;-74
2021/01/29 08:02:55;;;;;;;26.80;8.17;;;;;;;-144.99;84.80;52592.81;5041003;28;20747;-77
2021/01/29 08:05:27;;;;;;;11.47;5.00;;;;;;;-144.99;84.47;52598.94;5043515;28;20616;-77
2021/01/29 08:07:59;;;;;;;10.33;3.60;;;;;;;-144.99;82.94;52596.88;5052714;28;20823;-76
2021/01/29 08:10:32;;;;;;;9.87;3.63;;;;;;;-144.99;82.14;52603.00;5055782;28;20691;-74
2021/01/29 08:13:08;;;;;;;11.13;3.33;;;;;;;-144.99;81.14;52598.94;5053035;28;21252;-75
2021/01/29 08:15:42;;;;;;;16.77;6.10;;;;;;;-144.99;82.09;52598.94;5050669;28;21157;-77
2021/01/29 08:18:29;;;;;;;16.23;4.70;;;;;;;-144.99;81.51;52590.78;5033907;28;20684;-74
2021/01/29 08:21:19;;;;;;;20.97;6.90;;;;;;;-144.99;80.58;52578.53;5041678;28;20738;-77
2021/01/29 08:24:01;;;;;;;19.13;5.67;;;;;;;-144.99;81.28;52578.53;5050451;28;20690;-76
2021/01/29 08:26:40;;;;;;;11.20;4.10;;;;;;;-144.99;79.11;52576.50;5049696;28;21032;-75
2021/01/29 08:29:35;;;;;;;18.13;8.77;;;;;;;-144.99;79.87;52578.53;5045148;28;21186;-77
2021/01/29 08:32:42;;;;;;;32.30;11.30;;;;;;;-144.99;79.59;52576.50;5042696;28;20747;-77
2021/01/29 08:35:28;;;;;;;9.87;3.90;;;;;;;-144.99;77.28;52588.75;5036227;28;20674;-75
2021/01/29 08:38:02;;;;;;;6.57;2.90;;;;;;;-144.99;77.53;52558.16;5037412;28;20648;-75
2021/01/29 08:40:32;;;;;;;16.27;7.80;;;;;;;-144.99;77.45;52550.00;5043723;28;20703;-75
2021/01/29 08:43:15;;;;;;;7.80;3.43;;;;;;;-144.99;76.36;52603.00;5050429;28;20695;-74
2021/01/29 08:45:54;;;;;;;11.17;3.33;;;;;;;-144.99;76.02;52556.13;5044663;28;20734;-76
2021/01/29 08:48:32;;;;;;;17.33;5.13;;;;;;;-144.99;76.24;52594.84;5046669;28;20621;-76
2021/01/29 08:51:10;;;;;;;9.60;3.73;;;;;;;-144.99;75.62;52564.28;5034808;28;21017;-73
2021/01/29 08:54:11;;;;;;;14.10;6.13;;;;;;;-144.99;75.87;52603.00;5047481;28;20624;-75
2021/01/29 08:56:50;;;;;;;11.70;5.03;;;;;;;-144.99;75.52;52588.75;5051211;28;20629;-77
2021/01/29 08:59:19;;;;;;;11.93;4.97;;;;;;;-144.99;75.26;52547.97;5041134;28;21597;-75
2021/01/29 09:01:53;;;;;;;9.57;3.93;;;;;;;-144.99;75.51;52578.53;5032599;28;20652;-75
2021/01/29 09:04:29;;;;;;;8.93;3.27;;;;;;;-144.99;74.62;52566.31;5033444;28;20656;-75
2021/01/29 09:06:59;;;;;;;8.90;3.80;;;;;;;-144.99;74.59;52572.44;5041502;28;20702;-76
2021/01/29 09:09:30;;;;;;;3.20;1.37;;;;;;;-144.99;73.64;52574.47;5036814;28;21046;-76
2021/01/29 09:12:01;;;;;;;9.27;2.17;;;;;;;-144.99;73.70;52590.78;5038028;28;20648;-74
2021/01/29 09:14:35;;;;;;;5.77;1.87;;;;;;;-144.99;72.49;52594.84;5036284;28;20635;-77
2021/01/29 09:17:06;;;;;;;14.97;5.37;;;;;;;-144.99;73.42;52598.94;5045282;28;20687;-78
2021/01/29 09:19:36;;;;;;;6.27;1.57;;;;;;;-144.99;72.42;52623.38;5037021;28;20625;-75
2021/01/29 09:22:13;;;;;;;4.07;2.13;;;;;;;-144.99;72.01;52580.59;5042109;28;20701;-75
2021/01/29 09:24:47;;;;;;;13.87;5.40;;;;;;;-144.99;72.26;52566.31;5044275;28;20636;-76
2021/01/29 09:27:41;;;;;;;7.00;1.73;;;;;;;-144.99;71.69;52574.47;5043906;28;20640;-77
2021/01/29 09:30:16;;;;;;;21.07;5.27;;;;;;;-144.99;73.42;52570.38;5042255;28;20620;-74
2021/01/29 09:32:50;;;;;;;4.00;2.03;;;;;;;-144.99;72.23;52556.13;5040141;28;21092;-72
2021/01/29 09:35:24;;;;;;;12.00;4.53;;;;;;;-144.99;70.87;52600.97;5035606;28;20616;-75
2021/01/29 09:37:52;;;;;;;22.23;8.03;;;;;;;-144.99;71.69;52533.69;5036358;28;20746;-74
2021/01/29 09:40:25;;;;;;;19.40;8.83;;;;;;;-144.99;71.76;52529.63;5043401;28;20640;-74
2021/01/29 09:43:06;;;;;;;17.33;5.40;;;;;;;-144.99;71.71;52578.53;5041132;28;20663;-74
2021/01/29 09:45:38;;;;;;;9.50;2.30;;;;;;;-144.99;70.73;52574.47;5039799;28;20619;-75
2021/01/29 09:48:08;;;;;;;6.60;2.90;;;;;;;-144.99;70.60;52592.81;5041592;28;21028;-75
2021/01/29 09:50:35;;;;;;;6.77;2.20;;;;;;;-144.99;70.12;52574.47;5039264;28;20671;-74
2021/01/29 09:53:21;;;;;;;22.30;5.37;;;;;;;-144.99;70.15;52582.63;5034551;28;20649;-73
2021/01/29 09:55:55;;;;;;;16.20;3.57;;;;;;;-144.99;69.91;52586.69;5044014;28;20654;-74
2021/01/29 09:58:31;;;;;;;7.13;3.73;;;;;;;-144.99;70.09;52603.00;5040851;28;21001;-74
2021/01/29 10:01:04;;;;;;;15.97;4.00;;;;;;;-144.99;69.92;52566.31;5041882;28;20637;-74
2021/01/29 10:03:36;;;;;;;19.03;9.63;;;;;;;-144.99;70.30;52590.78;5038700;28;21218;-75
2021/01/29 10:06:06;;;;;;;19.43;7.57;;;;;;;-144.99;70.14;52568.34;5045232;28;20630;-74
2021/01/29 10:08:37;;;;;;;5.43;2.47;;;;;;;-144.99;69.12;52545.94;5037413;28;20912;-75
2021/01/29 10:11:07;;;;;;;12.00;3.70;;;;;;;-144.99;69.07;52590.78;5044210;28;20677;-74
2021/01/29 10:14:00;;;;;;;10.77;4.77;;;;;;;-144.99;69.21;52529.63;5046992;28;20624;-77
2021/01/29 10:16:34;;;;;;;9.83;5.77;;;;;;;-144.99;68.63;52590.78;5043048;28;20635;-73
2021/01/29 10:19:13;;;;;;;8.77;3.23;;;;;;;-144.99;68.14;52566.31;5040650;28;20672;-73
2021/01/29 10:22:15;;;;;;;9.07;3.40;;;;;;;-144.99;67.35;52566.31;5048898;28;20659;-74
2021/01/29 10:24:50;;;;;;;15.53;7.60;;;;;;;-144.99;67.73;52570.38;5043348;28;20627;-74
2021/01/29 10:27:23;;;;;;;8.73;3.70;;;;;;;-144.99;66.89;52566.31;5042755;28;20639;-74
2021/01/29 10:30:00;;;;;;;5.47;2.77;;;;;;;-144.99;66.53;52590.78;5035559;28;20644;-74
2021/01/29 10:32:33;;;;;;;13.43;4.47;;;;;;;-144.99;67.14;52582.63;5045164;28;20659;-73
2021/01/29 10:35:05;;;;;;;8.03;2.73;;;;;;;-144.99;66.32;52568.34;5036811;28;21177;-74
2021/01/29 10:37:37;;;;;;;6.37;2.83;;;;;;;-144.99;66.86;52617.28;5049031;28;20713;-77
2021/01/29 10:40:23;;;;;;;13.10;6.83;;;;;;;-144.99;66.68;52586.69;5048587;28;21008;-73
2021/01/29 10:43:00;;;;;;;10.33;4.93;;;;;;;-144.99;66.54;52550.00;5066463;22;20691;-75
2021/01/29 10:45:55;;;;;;;6.17;3.13;;;;;;;-144.99;66.23;52592.81;5025426;28;20631;-71
2021/01/29 10:48:51;;;;;;;5.90;2.47;;;;;;;-144.99;65.79;52574.47;5025765;28;20989;-71
2021/01/29 10:51:31;;;;;;;14.33;6.20;;;;;;;-144.99;66.48;52562.25;5007685;28;20647;-72
2021/01/29 10:53:59;;;;;;;16.73;6.97;;;;;;;-144.99;66.82;52598.94;5019875;28;20700;-71
2021/01/29 10:56:32;;;;;;;14.80;6.43;;;;;;;-144.99;66.91;52550.00;5008736;28;20657;-71
2021/01/29 10:59:04;;;;;;;18.43;6.50;;;;;;;-144.99;66.71;52564.28;5001096;28;20664;-71
2021/01/29 11:01:35;;;;;;;10.23;3.43;;;;;;;-144.99;66.27;52558.16;5008773;28;20936;-71
2021/01/29 11:04:08;;;;;;;9.90;4.87;;;;;;;-144.99;66.18;52586.69;5005475;28;20684;-72
2021/01/29 11:06:42;;;;;;;13.13;5.57;;;;;;;-144.99;66.28;52568.34;5009305;28;21310;-72
2021/01/29 11:09:17;;;;;;;14.60;5.60;;;;;;;-144.99;66.21;52541.84;5008463;28;20632;-69
2021/01/29 11:11:49;;;;;;;3.50;2.30;;;;;;;-144.99;65.36;52545.94;5027635;28;20709;-73
2021/01/29 11:14:22;;;;;;;11.43;3.77;;;;;;;-144.99;66.07;52590.78;5015667;28;20744;-71
2021/01/29 11:16:59;;;;;;;16.27;5.70;;;;;;;-144.99;66.21;52594.84;5015811;28;21009;-71
2021/01/29 11:19:33;;;;;;;11.47;5.30;;;;;;;-144.99;66.42;52574.47;5013643;28;21241;-73
2021/01/29 11:22:24;;;;;;;11.33;4.63;;;;;;;-144.99;66.68;52578.53;5029156;28;20747;-72
2021/01/29 11:25:30;;;;;;;16.30;5.53;;;;;;;-144.99;66.31;52578.53;5003877;28;21065;-72
2021/01/29 11:28:03;;;;;;;7.53;2.43;;;;;;;-144.99;65.28;52586.69;5007718;28;20971;-72
2021/01/29 11:30:33;;;;;;;13.67;7.23;;;;;;;-144.99;66.07;52558.16;5006174;28;20717;-72
2021/01/29 11:33:04;;;;;;;2.83;1.60;;;;;;;-144.99;65.50;52596.88;5012528;28;20763;-73
2021/01/29 11:35:42;;;;;;;16.70;6.40;;;;;;;-144.99;66.25;52584.66;5015179;28;20644;-73
2021/01/29 11:38:28;;;;;;;20.80;9.63;;;;;;;-144.99;66.91;52582.63;5009806;28;20690;-73
2021/01/29 11:41:01;;;;;;;14.20;5.63;;;;;;;-144.99;65.39;52564.28;5012160;28;20650;-73
2021/01/29 11:43:39;;;;;;;9.60;4.67;;;;;;;-144.99;65.16;52586.69;5008923;28;20673;-73
2021/01/29 11:46:25;;;;;;;15.80;6.33;;;;;;;-144.99;66.02;52607.09;5018789;28;21061;-74
2021/01/29 11:48:56;;;;;;;11.17;5.63;;;;;;;-144.99;65.22;52562.25;5013264;28;20633;-70
2021/01/29 11:51:33;;;;;;;15.07;5.70;;;;;;;-144.99;65.45;52562.25;5000796;28;20695;-74
2021/01/29 11:54:03;;;;;;;9.37;2.87;;;;;;;-144.99;64.35;52594.84;5012722;28;20657;-72
2021/01/29 11:56:37;;;;;;;11.80;6.40;;;;;;;-144.99;65.32;52554.09;5016793;28;21229;-74
2021/01/29 11:59:11;;;;;;;9.10;3.67;;;;;;;-144.99;64.92;52594.84;5015473;28;20681;-71
2021/01/29 12:01:39;;;;;;;6.43;2.53;;;;;;;-144.99;65.54;52615.25;5014278;28;20663;-74